createdAt,value
2019-02-23T00:03:30.806Z,21.3
2019-02-23T00:09:25.831Z,22.52
2019-02-23T00:15:20.780Z,22.32
2019-02-23T00:21:15.876Z,22.35
2019-02-23T00:27:10.797Z,20.77
2019-02-23T00:33:05.798Z,19.85
2019-02-23T00:39:00.788Z,19.12
2019-02-23T00:44:55.814Z,17.78
2019-02-23T00:50:50.802Z,19.27
2019-02-23T00:56:45.801Z,14.55
2019-02-23T01:02:40.811Z,15.75
2019-02-23T01:08:35.830Z,15.59
2019-02-23T01:14:30.851Z,14.17
2019-02-23T01:20:25.832Z,12.94
2019-02-23T01:26:20.831Z,13.77
2019-02-23T01:32:15.887Z,14.79
2019-02-23T01:38:10.849Z,15.64
2019-02-23T01:44:05.829Z,13.57
2019-02-23T01:50:00.823Z,17.53
2019-02-23T01:55:55.852Z,13.39
2019-02-23T02:01:50.885Z,16.62
2019-02-23T02:07:45.849Z,16.93
2019-02-23T02:13:40.910Z,15.82
2019-02-23T02:19:35.900Z,16.36
2019-02-23T02:25:30.850Z,17.52
2019-02-23T02:31:25.852Z,18.55
2019-02-23T02:37:20.866Z,17.08
2019-02-23T02:43:15.853Z,17.7
2019-02-23T02:49:10.891Z,18.57
2019-02-23T02:55:05.909Z,20.05
2019-02-23T03:01:00.871Z,20.52
2019-02-23T03:06:55.928Z,21.06
2019-02-23T03:12:50.897Z,24.45
2019-02-23T03:18:45.904Z,22.57
2019-02-23T03:24:40.891Z,22.12
2019-02-23T03:30:35.902Z,25.11
2019-02-23T03:36:30.887Z,23.85
2019-02-23T03:42:25.912Z,24.53
2019-02-23T03:48:20.912Z,23.92
2019-02-23T03:54:15.893Z,22.44
2019-02-23T04:00:10.906Z,14.76
2019-02-23T04:06:05.935Z,14.67
2019-02-23T04:12:00.917Z,10.98
2019-02-23T04:17:55.916Z,10.87
2019-02-23T04:23:50.962Z,8.56
2019-02-23T04:29:46.974Z,8.87
2019-02-23T04:35:40.918Z,7.24
2019-02-23T04:41:35.903Z,4.95
2019-02-23T04:47:30.949Z,4.63
2019-02-23T04:53:25.955Z,5.51
2019-02-23T04:59:20.946Z,5.41
2019-02-23T05:05:15.930Z,4.32
2019-02-23T05:11:11.006Z,3.96
2019-02-23T05:17:05.958Z,4.33
2019-02-23T05:23:01.017Z,3.43
2019-02-23T05:28:55.951Z,1.89
2019-02-23T05:34:50.950Z,2.59
2019-02-23T05:40:45.969Z,2.34
2019-02-23T05:46:40.975Z,2.63
2019-02-23T05:52:35.997Z,2.6
2019-02-23T05:58:30.996Z,2.04
2019-02-23T06:04:25.954Z,2.1
2019-02-23T06:10:21.004Z,1.99
2019-02-23T06:16:15.954Z,2.61
2019-02-23T06:22:10.992Z,2.47
2019-02-23T06:28:05.974Z,2.19
2019-02-23T06:34:00.981Z,2.19
2019-02-23T06:39:56.001Z,1.9
2019-02-23T06:45:50.987Z,1.83
2019-02-23T06:51:45.976Z,2.25
2019-02-23T06:57:40.974Z,2.75
2019-02-23T07:03:36.001Z,2.33
2019-02-23T07:09:31.000Z,2.07
2019-02-23T07:15:26.014Z,2.17
2019-02-23T07:21:20.996Z,1.76
2019-02-23T07:27:16.104Z,2.19
2019-02-23T07:33:11.017Z,1.7
2019-02-23T07:39:06.007Z,1.98
2019-02-23T07:45:01.049Z,1.87
2019-02-23T07:50:56.012Z,1.82
2019-02-23T07:56:51.018Z,1.92
2019-02-23T08:02:46.015Z,1.93
2019-02-23T08:08:41.044Z,1.37
2019-02-23T08:14:36.052Z,1.72
2019-02-23T08:20:31.041Z,1.83
2019-02-23T08:26:26.055Z,1.68
2019-02-23T08:32:21.051Z,1.88
2019-02-23T08:38:16.046Z,1.33
2019-02-23T08:44:11.045Z,1.66
2019-02-23T08:50:06.055Z,1.88
2019-02-23T08:56:01.064Z,1.29
2019-02-23T09:01:56.054Z,0.93
2019-02-23T09:07:51.083Z,1.33
2019-02-23T09:13:46.133Z,1.37
2019-02-23T09:19:41.111Z,1.09
2019-02-23T09:25:36.077Z,1.04
2019-02-23T09:31:31.129Z,1.34
2019-02-23T09:37:26.114Z,1.09
2019-02-23T09:43:21.133Z,1.24
2019-02-23T09:49:16.119Z,0.82
2019-02-23T09:55:11.089Z,1.16
2019-02-23T10:01:06.085Z,0.84
2019-02-23T10:07:01.175Z,1.48
2019-02-23T10:12:56.107Z,1.27
2019-02-23T10:18:51.099Z,1.49
2019-02-23T10:24:46.137Z,1.44
2019-02-23T10:30:41.135Z,1.61
2019-02-23T10:36:36.169Z,1.5
2019-02-23T10:42:31.139Z,1.51
2019-02-23T10:48:26.147Z,1.63
2019-02-23T10:54:21.141Z,1.94
2019-02-23T11:00:16.145Z,1.62
2019-02-23T11:06:11.128Z,1.4
2019-02-23T11:12:06.141Z,1.4
2019-02-23T11:18:02.866Z,1.46
2019-02-23T11:23:56.180Z,1.68
2019-02-23T11:29:51.148Z,1.49
2019-02-23T11:35:46.150Z,1.69
2019-02-23T11:41:41.157Z,9.21
2019-02-23T11:47:36.187Z,1.51
2019-02-23T11:53:31.183Z,5.77
2019-02-23T11:59:26.186Z,2.08
2019-02-23T12:05:21.163Z,2.29
2019-02-23T12:11:16.188Z,1.74
2019-02-23T12:17:11.178Z,1.61
2019-02-23T12:23:06.179Z,1.89
2019-02-23T12:29:01.194Z,1.43
2019-02-23T12:34:56.189Z,1.22
2019-02-23T12:40:51.205Z,1.15
2019-02-23T12:46:46.210Z,1.19
2019-02-23T12:52:41.178Z,1.2
2019-02-23T12:58:36.203Z,0.9
2019-02-23T13:04:31.198Z,1.25
2019-02-23T13:10:26.194Z,1.89
2019-02-23T13:16:21.253Z,0.95
2019-02-23T13:22:16.199Z,0.91
2019-02-23T13:28:11.239Z,0.84
2019-02-23T13:34:06.225Z,1.12
2019-02-23T13:40:01.248Z,0.81
2019-02-23T13:45:56.267Z,0.78
2019-02-23T13:51:51.256Z,0.82
2019-02-23T13:57:46.263Z,0.96
2019-02-23T14:03:41.218Z,0.73
2019-02-23T14:09:36.262Z,0.91
2019-02-23T14:15:31.247Z,0.59
2019-02-23T14:21:26.279Z,0.63
2019-02-23T14:27:21.295Z,0.77
2019-02-23T14:33:16.266Z,0.65
2019-02-23T14:39:13.009Z,0.79
2019-02-23T14:45:06.338Z,1.14
2019-02-23T14:51:02.041Z,0.75
2019-02-23T14:56:56.277Z,0.81
2019-02-23T15:02:51.262Z,1.19
2019-02-23T15:08:46.262Z,0.88
2019-02-23T15:14:41.268Z,0.73
2019-02-23T15:20:36.302Z,0.85
2019-02-23T15:26:31.301Z,0.74
2019-02-23T15:32:26.297Z,0.8
2019-02-23T15:38:21.325Z,0.85
